LGA weather

La Guardia Airport
New York, New York, United States

Public forecast

Using degrees Fahrenheit for public forecast. Weather courtesy of forecast.io.

METAR (pilot weather report)

Retrieved 2018/12/13 18:37 UTC (0 seconds ago):

KLGA 131837Z 05011KT 7SM -RA FEW009 OVC022 04/01 A3041 RMK AO2 SNE13 P0000 T00390011

TAF (pilot weather forecast)

Retrieved 2018/12/13 18:33 UTC (0 seconds ago):

TAF KLGA 131729Z 1318/1424 05009KT P6SM -SNRA FEW009 BKN035 TEMPO 1318/1319 4SM -SNRA BKN020 FM131900 06009KT P6SM OVC030 FM140000 08009KT P6SM OVC015 FM140500 07006KT P6SM OVC010 FM141300 09008KT P6SM SCT010 BKN020 FM141800 10006KT 5SM BR SCT010 BKN020